sensor_id;sensor_type;location;lat;lon;timestamp;temperature;humidity
34640;DHT22;22600;48.186;11.526;2022-10-16T00:01:56;20.10;76.80
34640;DHT22;22600;48.186;11.526;2022-10-16T00:04:22;20.10;76.80
34640;DHT22;22600;48.186;11.526;2022-10-16T00:06:48;20.10;76.80
34640;DHT22;22600;48.186;11.526;2022-10-16T00:09:13;20.10;76.80
34640;DHT22;22600;48.186;11.526;2022-10-16T00:11:40;20.10;76.70
34640;DHT22;22600;48.186;11.526;2022-10-16T00:14:09;20.40;77.00
34640;DHT22;22600;48.186;11.526;2022-10-16T00:16:35;20.10;76.80
34640;DHT22;22600;48.186;11.526;2022-10-16T00:19:01;20.10;76.80
34640;DHT22;22600;48.186;11.526;2022-10-16T00:21:28;20.10;76.70
34640;DHT22;22600;48.186;11.526;2022-10-16T00:23:57;20.10;76.70
34640;DHT22;22600;48.186;11.526;2022-10-16T00:26:24;20.10;76.70
34640;DHT22;22600;48.186;11.526;2022-10-16T00:28:51;20.10;76.70
34640;DHT22;22600;48.186;11.526;2022-10-16T00:31:18;20.10;76.70
34640;DHT22;22600;48.186;11.526;2022-10-16T00:33:44;20.10;76.70
34640;DHT22;22600;48.186;11.526;2022-10-16T00:36:12;20.10;76.80
34640;DHT22;22600;48.186;11.526;2022-10-16T00:38:39;20.10;76.70
34640;DHT22;22600;48.186;11.526;2022-10-16T00:41:06;20.90;77.20
34640;DHT22;22600;48.186;11.526;2022-10-16T00:43:43;20.10;76.80
34640;DHT22;22600;48.186;11.526;2022-10-16T00:48:48;20.10;76.70
34640;DHT22;22600;48.186;11.526;2022-10-16T00:51:15;20.10;76.70
34640;DHT22;22600;48.186;11.526;2022-10-16T00:53:43;20.10;76.70
34640;DHT22;22600;48.186;11.526;2022-10-16T00:56:09;20.10;76.70
34640;DHT22;22600;48.186;11.526;2022-10-16T00:58:35;20.10;76.70
34640;DHT22;22600;48.186;11.526;2022-10-16T01:01:00;20.10;76.70
34640;DHT22;22600;48.186;11.526;2022-10-16T01:03:35;20.10;76.70
34640;DHT22;22600;48.186;11.526;2022-10-16T01:06:45;20.10;76.70
34640;DHT22;22600;48.186;11.526;2022-10-16T01:14:38;20.10;76.80
34640;DHT22;22600;48.186;11.526;2022-10-16T01:17:11;20.10;76.70
34640;DHT22;22600;48.186;11.526;2022-10-16T01:22:06;20.10;76.70
34640;DHT22;22600;48.186;11.526;2022-10-16T01:24:38;20.10;76.20
34640;DHT22;22600;48.186;11.526;2022-10-16T01:27:25;20.10;76.70
34640;DHT22;22600;48.186;11.526;2022-10-16T01:29:55;20.10;76.70
34640;DHT22;22600;48.186;11.526;2022-10-16T01:32:40;20.10;76.70
34640;DHT22;22600;48.186;11.526;2022-10-16T01:35:29;20.10;77.40
34640;DHT22;22600;48.186;11.526;2022-10-16T01:40:24;20.10;76.70
34640;DHT22;22600;48.186;11.526;2022-10-16T01:42:55;20.10;76.70
34640;DHT22;22600;48.186;11.526;2022-10-16T01:45:22;20.10;76.70
34640;DHT22;22600;48.186;11.526;2022-10-16T01:47:48;20.10;76.70
34640;DHT22;22600;48.186;11.526;2022-10-16T01:50:16;20.10;76.70
34640;DHT22;22600;48.186;11.526;2022-10-16T01:52:46;20.10;76.70
34640;DHT22;22600;48.186;11.526;2022-10-16T01:55:17;20.10;76.80
34640;DHT22;22600;48.186;11.526;2022-10-16T01:57:48;20.10;76.70
34640;DHT22;22600;48.186;11.526;2022-10-16T02:00:17;20.10;76.70
34640;DHT22;22600;48.186;11.526;2022-10-16T02:02:47;20.10;76.70
34640;DHT22;22600;48.186;11.526;2022-10-16T02:05:46;20.10;76.70
34640;DHT22;22600;48.186;11.526;2022-10-16T02:08:13;20.10;76.70
34640;DHT22;22600;48.186;11.526;2022-10-16T02:10:39;20.10;76.70
34640;DHT22;22600;48.186;11.526;2022-10-16T02:13:33;20.10;76.70
34640;DHT22;22600;48.186;11.526;2022-10-16T02:15:59;20.10;76.70
34640;DHT22;22600;48.186;11.526;2022-10-16T02:18:26;20.10;76.70
34640;DHT22;22600;48.186;11.526;2022-10-16T02:23:54;20.10;76.70
34640;DHT22;22600;48.186;11.526;2022-10-16T02:26:51;20.10;76.60
34640;DHT22;22600;48.186;11.526;2022-10-16T02:29:17;20.10;76.70
34640;DHT22;22600;48.186;11.526;2022-10-16T02:31:46;20.10;76.70
34640;DHT22;22600;48.186;11.526;2022-10-16T02:34:14;20.10;76.70
34640;DHT22;22600;48.186;11.526;2022-10-16T02:36:42;20.10;76.70
34640;DHT22;22600;48.186;11.526;2022-10-16T02:39:08;20.10;76.70
34640;DHT22;22600;48.186;11.526;2022-10-16T02:41:34;20.10;76.70
34640;DHT22;22600;48.186;11.526;2022-10-16T02:44:00;20.10;76.70
34640;DHT22;22600;48.186;11.526;2022-10-16T02:46:26;20.10;76.80
34640;DHT22;22600;48.186;11.526;2022-10-16T02:48:51;20.10;76.70
34640;DHT22;22600;48.186;11.526;2022-10-16T02:51:17;20.10;76.70
34640;DHT22;22600;48.186;11.526;2022-10-16T02:53:42;20.10;76.70
34640;DHT22;22600;48.186;11.526;2022-10-16T02:56:08;20.10;76.70
34640;DHT22;22600;48.186;11.526;2022-10-16T02:58:33;20.10;76.70
34640;DHT22;22600;48.186;11.526;2022-10-16T03:00:59;20.10;76.70
34640;DHT22;22600;48.186;11.526;2022-10-16T03:03:25;20.10;76.70
34640;DHT22;22600;48.186;11.526;2022-10-16T03:05:50;20.10;76.70
34640;DHT22;22600;48.186;11.526;2022-10-16T03:08:16;20.10;76.70
34640;DHT22;22600;48.186;11.526;2022-10-16T03:10:42;20.10;76.70
34640;DHT22;22600;48.186;11.526;2022-10-16T03:13:08;20.10;76.70
34640;DHT22;22600;48.186;11.526;2022-10-16T03:15:33;20.10;76.70
34640;DHT22;22600;48.186;11.526;2022-10-16T03:17:59;20.00;76.60
34640;DHT22;22600;48.186;11.526;2022-10-16T03:20:25;20.10;76.70
34640;DHT22;22600;48.186;11.526;2022-10-16T03:22:51;20.10;76.60
34640;DHT22;22600;48.186;11.526;2022-10-16T03:25:17;20.10;76.60
34640;DHT22;22600;48.186;11.526;2022-10-16T03:27:42;20.10;76.60
34640;DHT22;22600;48.186;11.526;2022-10-16T03:30:09;20.10;76.60
34640;DHT22;22600;48.186;11.526;2022-10-16T03:32:34;20.10;76.60
34640;DHT22;22600;48.186;11.526;2022-10-16T03:35:00;20.10;76.60
34640;DHT22;22600;48.186;11.526;2022-10-16T03:37:25;20.10;76.60
34640;DHT22;22600;48.186;11.526;2022-10-16T03:39:51;20.10;76.60
34640;DHT22;22600;48.186;11.526;2022-10-16T03:42:17;20.10;76.60
34640;DHT22;22600;48.186;11.526;2022-10-16T03:44:43;20.10;76.10
34640;DHT22;22600;48.186;11.526;2022-10-16T03:47:08;20.10;76.60
34640;DHT22;22600;48.186;11.526;2022-10-16T03:49:34;20.10;76.60
34640;DHT22;22600;48.186;11.526;2022-10-16T03:51:59;20.10;76.60
34640;DHT22;22600;48.186;11.526;2022-10-16T03:54:25;20.10;76.60
34640;DHT22;22600;48.186;11.526;2022-10-16T03:56:50;20.10;76.60
34640;DHT22;22600;48.186;11.526;2022-10-16T03:59:16;20.10;76.60
34640;DHT22;22600;48.186;11.526;2022-10-16T04:01:42;20.10;76.60
34640;DHT22;22600;48.186;11.526;2022-10-16T04:04:07;20.00;76.60
34640;DHT22;22600;48.186;11.526;2022-10-16T04:06:33;20.10;76.60
34640;DHT22;22600;48.186;11.526;2022-10-16T04:08:58;20.10;77.40
34640;DHT22;22600;48.186;11.526;2022-10-16T04:11:24;20.10;76.60
34640;DHT22;22600;48.186;11.526;2022-10-16T04:13:49;18.10;75.40
34640;DHT22;22600;48.186;11.526;2022-10-16T04:16:15;20.10;76.60
34640;DHT22;22600;48.186;11.526;2022-10-16T04:18:41;20.10;76.60
34640;DHT22;22600;48.186;11.526;2022-10-16T04:21:07;20.10;76.60
34640;DHT22;22600;48.186;11.526;2022-10-16T04:23:33;20.10;76.60
34640;DHT22;22600;48.186;11.526;2022-10-16T04:25:59;20.10;76.60
34640;DHT22;22600;48.186;11.526;2022-10-16T04:28:25;20.10;76.60
34640;DHT22;22600;48.186;11.526;2022-10-16T04:30:50;20.10;76.60
34640;DHT22;22600;48.186;11.526;2022-10-16T04:33:16;20.10;76.60
34640;DHT22;22600;48.186;11.526;2022-10-16T04:35:41;20.10;76.60
34640;DHT22;22600;48.186;11.526;2022-10-16T04:38:07;20.10;76.00
34640;DHT22;22600;48.186;11.526;2022-10-16T04:40:32;20.10;76.60
34640;DHT22;22600;48.186;11.526;2022-10-16T04:42:59;20.10;76.60
34640;DHT22;22600;48.186;11.526;2022-10-16T04:45:25;20.10;76.60
34640;DHT22;22600;48.186;11.526;2022-10-16T04:47:50;20.10;77.30
34640;DHT22;22600;48.186;11.526;2022-10-16T04:50:16;20.00;76.50
34640;DHT22;22600;48.186;11.526;2022-10-16T04:52:41;20.10;76.60
34640;DHT22;22600;48.186;11.526;2022-10-16T04:55:07;20.10;76.60
34640;DHT22;22600;48.186;11.526;2022-10-16T04:57:33;20.10;76.60
34640;DHT22;22600;48.186;11.526;2022-10-16T04:59:59;20.10;76.60
34640;DHT22;22600;48.186;11.526;2022-10-16T05:02:24;20.00;76.50
34640;DHT22;22600;48.186;11.526;2022-10-16T05:04:50;20.10;76.60
34640;DHT22;22600;48.186;11.526;2022-10-16T05:07:16;20.10;76.60
34640;DHT22;22600;48.186;11.526;2022-10-16T05:09:42;20.10;76.60
34640;DHT22;22600;48.186;11.526;2022-10-16T05:12:07;20.10;76.60
34640;DHT22;22600;48.186;11.526;2022-10-16T05:14:33;20.10;76.60
34640;DHT22;22600;48.186;11.526;2022-10-16T05:16:59;20.10;76.60
34640;DHT22;22600;48.186;11.526;2022-10-16T05:19:25;20.10;76.60
34640;DHT22;22600;48.186;11.526;2022-10-16T05:21:51;20.10;76.60
34640;DHT22;22600;48.186;11.526;2022-10-16T05:24:16;20.10;76.60
34640;DHT22;22600;48.186;11.526;2022-10-16T05:26:42;20.10;76.60
34640;DHT22;22600;48.186;11.526;2022-10-16T05:29:08;20.10;76.60
34640;DHT22;22600;48.186;11.526;2022-10-16T05:31:34;20.10;76.60
34640;DHT22;22600;48.186;11.526;2022-10-16T05:34:00;20.10;76.60
34640;DHT22;22600;48.186;11.526;2022-10-16T05:36:25;20.10;76.60
34640;DHT22;22600;48.186;11.526;2022-10-16T05:38:51;20.10;76.60
34640;DHT22;22600;48.186;11.526;2022-10-16T05:41:17;20.10;76.60
34640;DHT22;22600;48.186;11.526;2022-10-16T05:43:50;20.10;76.60
34640;DHT22;22600;48.186;11.526;2022-10-16T05:46:16;20.10;76.60
34640;DHT22;22600;48.186;11.526;2022-10-16T05:48:42;20.10;76.50
34640;DHT22;22600;48.186;11.526;2022-10-16T05:51:10;20.10;76.60
34640;DHT22;22600;48.186;11.526;2022-10-16T05:53:38;20.10;76.60
34640;DHT22;22600;48.186;11.526;2022-10-16T05:56:05;20.10;76.60
34640;DHT22;22600;48.186;11.526;2022-10-16T05:58:33;22.30;77.90
34640;DHT22;22600;48.186;11.526;2022-10-16T06:01:06;20.10;76.60
34640;DHT22;22600;48.186;11.526;2022-10-16T06:03:33;20.10;76.60
34640;DHT22;22600;48.186;11.526;2022-10-16T06:05:58;20.10;76.60
34640;DHT22;22600;48.186;11.526;2022-10-16T06:08:24;20.10;76.50
34640;DHT22;22600;48.186;11.526;2022-10-16T06:11:04;20.10;76.50
34640;DHT22;22600;48.186;11.526;2022-10-16T06:13:29;20.10;76.60
34640;DHT22;22600;48.186;11.526;2022-10-16T06:15:57;20.10;76.60
34640;DHT22;22600;48.186;11.526;2022-10-16T06:18:23;20.10;76.60
34640;DHT22;22600;48.186;11.526;2022-10-16T06:20:49;20.10;76.60
34640;DHT22;22600;48.186;11.526;2022-10-16T06:23:15;20.00;76.50
34640;DHT22;22600;48.186;11.526;2022-10-16T06:25:40;20.10;76.60
34640;DHT22;22600;48.186;11.526;2022-10-16T06:28:06;20.10;76.60
34640;DHT22;22600;48.186;11.526;2022-10-16T06:30:31;20.10;76.60
34640;DHT22;22600;48.186;11.526;2022-10-16T06:32:57;20.10;76.60
34640;DHT22;22600;48.186;11.526;2022-10-16T06:35:22;20.10;76.60
34640;DHT22;22600;48.186;11.526;2022-10-16T06:37:49;20.10;76.50
34640;DHT22;22600;48.186;11.526;2022-10-16T06:40:14;20.10;76.50
34640;DHT22;22600;48.186;11.526;2022-10-16T06:42:41;20.10;76.60
34640;DHT22;22600;48.186;11.526;2022-10-16T06:45:07;20.10;76.60
34640;DHT22;22600;48.186;11.526;2022-10-16T06:47:32;20.10;76.60
34640;DHT22;22600;48.186;11.526;2022-10-16T06:49:58;20.10;76.50
34640;DHT22;22600;48.186;11.526;2022-10-16T06:52:24;20.10;76.50
34640;DHT22;22600;48.186;11.526;2022-10-16T06:54:49;20.10;76.60
34640;DHT22;22600;48.186;11.526;2022-10-16T06:57:15;20.10;76.50
34640;DHT22;22600;48.186;11.526;2022-10-16T06:59:41;20.10;76.60
34640;DHT22;22600;48.186;11.526;2022-10-16T07:02:08;20.10;76.60
34640;DHT22;22600;48.186;11.526;2022-10-16T07:04:35;20.10;77.30
34640;DHT22;22600;48.186;11.526;2022-10-16T07:07:01;20.10;76.60
34640;DHT22;22600;48.186;11.526;2022-10-16T07:09:27;20.10;76.50
34640;DHT22;22600;48.186;11.526;2022-10-16T07:11:52;20.10;76.50
34640;DHT22;22600;48.186;11.526;2022-10-16T07:14:19;20.10;76.60
34640;DHT22;22600;48.186;11.526;2022-10-16T07:16:46;20.10;76.50
34640;DHT22;22600;48.186;11.526;2022-10-16T07:19:12;20.10;76.60
34640;DHT22;22600;48.186;11.526;2022-10-16T07:21:40;20.10;76.50
34640;DHT22;22600;48.186;11.526;2022-10-16T07:24:10;20.10;76.50
34640;DHT22;22600;48.186;11.526;2022-10-16T07:26:37;20.10;76.50
34640;DHT22;22600;48.186;11.526;2022-10-16T07:29:05;20.10;76.60
34640;DHT22;22600;48.186;11.526;2022-10-16T07:31:32;20.10;76.50
34640;DHT22;22600;48.186;11.526;2022-10-16T07:33:59;20.10;76.60
34640;DHT22;22600;48.186;11.526;2022-10-16T07:36:24;20.10;76.50
34640;DHT22;22600;48.186;11.526;2022-10-16T07:38:50;20.10;76.50
34640;DHT22;22600;48.186;11.526;2022-10-16T07:41:17;20.10;76.50
34640;DHT22;22600;48.186;11.526;2022-10-16T07:43:48;20.10;76.50
34640;DHT22;22600;48.186;11.526;2022-10-16T07:46:14;20.10;76.50
34640;DHT22;22600;48.186;11.526;2022-10-16T07:48:40;20.20;76.60
34640;DHT22;22600;48.186;11.526;2022-10-16T07:51:06;20.10;76.50
34640;DHT22;22600;48.186;11.526;2022-10-16T07:53:32;20.10;76.50
34640;DHT22;22600;48.186;11.526;2022-10-16T07:56:00;20.10;76.50
34640;DHT22;22600;48.186;11.526;2022-10-16T07:58:26;20.10;76.60
34640;DHT22;22600;48.186;11.526;2022-10-16T08:00:53;20.10;77.10
34640;DHT22;22600;48.186;11.526;2022-10-16T08:03:18;20.20;76.60
34640;DHT22;22600;48.186;11.526;2022-10-16T08:05:44;20.10;76.50
34640;DHT22;22600;48.186;11.526;2022-10-16T08:08:13;20.10;76.50
34640;DHT22;22600;48.186;11.526;2022-10-16T08:10:39;20.20;76.50
34640;DHT22;22600;48.186;11.526;2022-10-16T08:13:05;20.20;76.50
34640;DHT22;22600;48.186;11.526;2022-10-16T08:15:30;20.20;76.40
34640;DHT22;22600;48.186;11.526;2022-10-16T08:17:58;20.20;76.50
34640;DHT22;22600;48.186;11.526;2022-10-16T08:20:25;20.20;76.40
34640;DHT22;22600;48.186;11.526;2022-10-16T08:22:51;20.20;76.30
34640;DHT22;22600;48.186;11.526;2022-10-16T08:25:16;20.30;76.40
34640;DHT22;22600;48.186;11.526;2022-10-16T08:27:42;20.30;76.40
34640;DHT22;22600;48.186;11.526;2022-10-16T08:30:08;20.30;76.30
34640;DHT22;22600;48.186;11.526;2022-10-16T08:32:34;20.30;76.30
34640;DHT22;22600;48.186;11.526;2022-10-16T08:34:59;20.30;76.20
34640;DHT22;22600;48.186;11.526;2022-10-16T08:37:30;20.30;76.20
34640;DHT22;22600;48.186;11.526;2022-10-16T08:39:56;21.70;77.00
34640;DHT22;22600;48.186;11.526;2022-10-16T08:48:30;20.40;76.10
34640;DHT22;22600;48.186;11.526;2022-10-16T08:50:58;20.40;76.00
34640;DHT22;22600;48.186;11.526;2022-10-16T08:53:31;20.40;76.00
34640;DHT22;22600;48.186;11.526;2022-10-16T08:56:00;20.40;75.90
34640;DHT22;22600;48.186;11.526;2022-10-16T08:58:28;20.40;75.90
34640;DHT22;22600;48.186;11.526;2022-10-16T09:00:56;20.40;75.90
34640;DHT22;22600;48.186;11.526;2022-10-16T09:19:55;20.50;75.70
34640;DHT22;22600;48.186;11.526;2022-10-16T09:22:27;20.50;75.70
34640;DHT22;22600;48.186;11.526;2022-10-16T09:24:55;20.50;75.60
34640;DHT22;22600;48.186;11.526;2022-10-16T09:27:25;20.50;75.60
34640;DHT22;22600;48.186;11.526;2022-10-16T09:29:51;20.50;75.60
34640;DHT22;22600;48.186;11.526;2022-10-16T09:32:19;20.60;75.70
34640;DHT22;22600;48.186;11.526;2022-10-16T09:34:50;20.50;75.50
34640;DHT22;22600;48.186;11.526;2022-10-16T09:37:19;20.60;75.70
34640;DHT22;22600;48.186;11.526;2022-10-16T09:39:51;20.60;75.60
34640;DHT22;22600;48.186;11.526;2022-10-16T09:42:23;20.60;75.60
34640;DHT22;22600;48.186;11.526;2022-10-16T09:44:52;20.60;75.60
34640;DHT22;22600;48.186;11.526;2022-10-16T09:47:21;20.60;75.60
34640;DHT22;22600;48.186;11.526;2022-10-16T09:52:19;20.60;75.60
34640;DHT22;22600;48.186;11.526;2022-10-16T09:57:16;20.60;75.60
34640;DHT22;22600;48.186;11.526;2022-10-16T09:59:52;20.60;75.50
34640;DHT22;22600;48.186;11.526;2022-10-16T10:02:28;20.60;75.50
34640;DHT22;22600;48.186;11.526;2022-10-16T10:04:55;20.60;75.50
34640;DHT22;22600;48.186;11.526;2022-10-16T10:07:25;20.60;75.60
34640;DHT22;22600;48.186;11.526;2022-10-16T10:09:52;20.60;75.50
34640;DHT22;22600;48.186;11.526;2022-10-16T10:12:23;20.60;75.50
34640;DHT22;22600;48.186;11.526;2022-10-16T10:14:55;20.60;75.60
34640;DHT22;22600;48.186;11.526;2022-10-16T10:17:25;20.60;75.60
34640;DHT22;22600;48.186;11.526;2022-10-16T10:20:14;20.60;75.60
34640;DHT22;22600;48.186;11.526;2022-10-16T10:22:42;20.60;75.60
34640;DHT22;22600;48.186;11.526;2022-10-16T10:27:49;20.60;75.70
34640;DHT22;22600;48.186;11.526;2022-10-16T10:36:28;20.60;75.90
34640;DHT22;22600;48.186;11.526;2022-10-16T10:38:56;20.60;75.90
34640;DHT22;22600;48.186;11.526;2022-10-16T10:46:49;20.60;76.00
34640;DHT22;22600;48.186;11.526;2022-10-16T10:57:29;20.60;76.10
34640;DHT22;22600;48.186;11.526;2022-10-16T11:00:13;20.60;76.10
34640;DHT22;22600;48.186;11.526;2022-10-16T11:02:54;20.60;76.10
34640;DHT22;22600;48.186;11.526;2022-10-16T11:05:41;20.60;76.20
34640;DHT22;22600;48.186;11.526;2022-10-16T11:08:12;20.60;76.20
34640;DHT22;22600;48.186;11.526;2022-10-16T11:10:53;20.60;76.20
34640;DHT22;22600;48.186;11.526;2022-10-16T11:13:39;20.60;76.20
34640;DHT22;22600;48.186;11.526;2022-10-16T11:16:37;20.60;76.20
34640;DHT22;22600;48.186;11.526;2022-10-16T11:22:00;20.60;76.30
34640;DHT22;22600;48.186;11.526;2022-10-16T11:24:53;20.60;76.30
34640;DHT22;22600;48.186;11.526;2022-10-16T11:27:29;20.60;76.30
34640;DHT22;22600;48.186;11.526;2022-10-16T11:29:59;20.60;76.30
34640;DHT22;22600;48.186;11.526;2022-10-16T11:32:39;20.60;76.40
34640;DHT22;22600;48.186;11.526;2022-10-16T11:35:24;20.60;75.90
34640;DHT22;22600;48.186;11.526;2022-10-16T11:37:50;20.60;76.60
34640;DHT22;22600;48.186;11.526;2022-10-16T11:40:23;20.60;76.40
34640;DHT22;22600;48.186;11.526;2022-10-16T11:42:58;20.60;76.40
34640;DHT22;22600;48.186;11.526;2022-10-16T11:45:44;20.60;76.40
34640;DHT22;22600;48.186;11.526;2022-10-16T11:48:18;20.60;76.50
34640;DHT22;22600;48.186;11.526;2022-10-16T11:56:13;20.60;76.50
34640;DHT22;22600;48.186;11.526;2022-10-16T11:59:16;20.60;76.60
34640;DHT22;22600;48.186;11.526;2022-10-16T12:01:51;20.60;76.60
34640;DHT22;22600;48.186;11.526;2022-10-16T12:07:14;20.60;76.60
34640;DHT22;22600;48.186;11.526;2022-10-16T12:09:41;20.60;76.60
34640;DHT22;22600;48.186;11.526;2022-10-16T12:12:42;20.60;76.70
34640;DHT22;22600;48.186;11.526;2022-10-16T12:15:26;20.60;76.70
34640;DHT22;22600;48.186;11.526;2022-10-16T12:17:52;20.60;76.70
34640;DHT22;22600;48.186;11.526;2022-10-16T12:20:44;20.60;76.70
34640;DHT22;22600;48.186;11.526;2022-10-16T12:23:20;20.60;76.70
34640;DHT22;22600;48.186;11.526;2022-10-16T12:25:54;20.60;76.20
34640;DHT22;22600;48.186;11.526;2022-10-16T12:28:25;20.60;76.80
34640;DHT22;22600;48.186;11.526;2022-10-16T12:31:05;20.60;76.80
34640;DHT22;22600;48.186;11.526;2022-10-16T12:33:36;20.60;76.80
34640;DHT22;22600;48.186;11.526;2022-10-16T12:36:35;20.70;76.90
34640;DHT22;22600;48.186;11.526;2022-10-16T12:39:02;20.60;76.90
34640;DHT22;22600;48.186;11.526;2022-10-16T12:41:33;20.60;76.90
34640;DHT22;22600;48.186;11.526;2022-10-16T12:44:00;20.60;76.90
34640;DHT22;22600;48.186;11.526;2022-10-16T12:49:50;20.60;76.90
34640;DHT22;22600;48.186;11.526;2022-10-16T12:51:52;20.70;77.00
34640;DHT22;22600;48.186;11.526;2022-10-16T12:54:26;20.60;76.90
34640;DHT22;22600;48.186;11.526;2022-10-16T12:59:58;20.60;77.00
34640;DHT22;22600;48.186;11.526;2022-10-16T13:02:49;20.50;76.90
34640;DHT22;22600;48.186;11.526;2022-10-16T13:14:14;20.70;77.10
34640;DHT22;22600;48.186;11.526;2022-10-16T13:25:01;20.70;77.20
34640;DHT22;22600;48.186;11.526;2022-10-16T13:30:18;20.70;77.20
34640;DHT22;22600;48.186;11.526;2022-10-16T13:32:49;20.70;77.20
34640;DHT22;22600;48.186;11.526;2022-10-16T13:35:27;20.70;77.20
34640;DHT22;22600;48.186;11.526;2022-10-16T13:38:12;20.70;77.20
34640;DHT22;22600;48.186;11.526;2022-10-16T13:40:50;20.70;77.20
34640;DHT22;22600;48.186;11.526;2022-10-16T13:43:18;20.70;77.20
34640;DHT22;22600;48.186;11.526;2022-10-16T13:45:53;21.90;78.00
34640;DHT22;22600;48.186;11.526;2022-10-16T13:48:19;20.70;77.20
34640;DHT22;22600;48.186;11.526;2022-10-16T13:50:44;20.70;77.20
34640;DHT22;22600;48.186;11.526;2022-10-16T13:53:14;20.70;77.20
34640;DHT22;22600;48.186;11.526;2022-10-16T13:55:40;20.70;77.20
34640;DHT22;22600;48.186;11.526;2022-10-16T13:58:13;20.70;77.30
34640;DHT22;22600;48.186;11.526;2022-10-16T14:00:39;20.70;76.70
34640;DHT22;22600;48.186;11.526;2022-10-16T14:03:11;20.70;77.20
34640;DHT22;22600;48.186;11.526;2022-10-16T14:05:46;20.70;77.20
34640;DHT22;22600;48.186;11.526;2022-10-16T14:08:12;20.70;77.30
34640;DHT22;22600;48.186;11.526;2022-10-16T14:10:38;20.70;77.30
34640;DHT22;22600;48.186;11.526;2022-10-16T14:13:06;20.70;77.30
34640;DHT22;22600;48.186;11.526;2022-10-16T14:15:34;20.70;77.30
34640;DHT22;22600;48.186;11.526;2022-10-16T14:18:00;20.70;77.40
34640;DHT22;22600;48.186;11.526;2022-10-16T14:20:30;20.70;77.40
34640;DHT22;22600;48.186;11.526;2022-10-16T14:23:18;20.70;77.30
34640;DHT22;22600;48.186;11.526;2022-10-16T14:25:43;20.70;77.30
34640;DHT22;22600;48.186;11.526;2022-10-16T14:30:56;20.70;77.30
34640;DHT22;22600;48.186;11.526;2022-10-16T14:36:05;20.70;77.30
34640;DHT22;22600;48.186;11.526;2022-10-16T14:38:32;20.70;77.40
34640;DHT22;22600;48.186;11.526;2022-10-16T14:40:59;20.70;78.10
34640;DHT22;22600;48.186;11.526;2022-10-16T14:43:42;20.70;77.40
34640;DHT22;22600;48.186;11.526;2022-10-16T14:46:22;20.70;77.40
34640;DHT22;22600;48.186;11.526;2022-10-16T14:48:59;20.70;77.30
34640;DHT22;22600;48.186;11.526;2022-10-16T14:51:26;20.70;77.30
34640;DHT22;22600;48.186;11.526;2022-10-16T14:53:51;20.70;77.30
34640;DHT22;22600;48.186;11.526;2022-10-16T14:56:27;20.70;77.30
34640;DHT22;22600;48.186;11.526;2022-10-16T14:58:55;20.70;77.30
34640;DHT22;22600;48.186;11.526;2022-10-16T15:01:21;20.70;77.30
34640;DHT22;22600;48.186;11.526;2022-10-16T15:03:47;20.70;77.30
34640;DHT22;22600;48.186;11.526;2022-10-16T15:06:16;20.70;77.20
34640;DHT22;22600;48.186;11.526;2022-10-16T15:08:42;20.70;77.30
34640;DHT22;22600;48.186;11.526;2022-10-16T15:11:16;20.70;77.20
34640;DHT22;22600;48.186;11.526;2022-10-16T15:13:42;20.70;77.30
34640;DHT22;22600;48.186;11.526;2022-10-16T15:16:16;20.70;77.20
34640;DHT22;22600;48.186;11.526;2022-10-16T15:18:42;20.70;77.30
34640;DHT22;22600;48.186;11.526;2022-10-16T15:21:21;20.60;77.20
34640;DHT22;22600;48.186;11.526;2022-10-16T15:23:49;20.60;77.20
34640;DHT22;22600;48.186;11.526;2022-10-16T15:26:15;20.60;77.20
34640;DHT22;22600;48.186;11.526;2022-10-16T15:28:40;20.60;77.20
34640;DHT22;22600;48.186;11.526;2022-10-16T15:31:06;20.60;77.20
34640;DHT22;22600;48.186;11.526;2022-10-16T15:33:32;20.60;77.20
34640;DHT22;22600;48.186;11.526;2022-10-16T15:36:00;20.60;77.20
34640;DHT22;22600;48.186;11.526;2022-10-16T15:38:26;20.60;77.20
34640;DHT22;22600;48.186;11.526;2022-10-16T15:40:52;20.60;77.20
34640;DHT22;22600;48.186;11.526;2022-10-16T15:43:18;20.60;77.20
34640;DHT22;22600;48.186;11.526;2022-10-16T15:45:46;20.60;77.20
34640;DHT22;22600;48.186;11.526;2022-10-16T15:48:23;20.60;77.20
34640;DHT22;22600;48.186;11.526;2022-10-16T15:50:49;20.60;77.20
34640;DHT22;22600;48.186;11.526;2022-10-16T15:53:14;20.60;77.20
34640;DHT22;22600;48.186;11.526;2022-10-16T15:55:40;20.60;77.20
34640;DHT22;22600;48.186;11.526;2022-10-16T15:58:05;20.60;77.20
34640;DHT22;22600;48.186;11.526;2022-10-16T16:00:31;20.60;77.20
34640;DHT22;22600;48.186;11.526;2022-10-16T16:02:57;20.60;77.20
34640;DHT22;22600;48.186;11.526;2022-10-16T16:05:22;20.60;77.30
34640;DHT22;22600;48.186;11.526;2022-10-16T16:07:48;20.60;77.20
34640;DHT22;22600;48.186;11.526;2022-10-16T16:10:14;20.60;77.20
34640;DHT22;22600;48.186;11.526;2022-10-16T16:12:40;20.60;77.20
34640;DHT22;22600;48.186;11.526;2022-10-16T16:15:07;20.60;77.20
34640;DHT22;22600;48.186;11.526;2022-10-16T16:17:34;20.60;77.20
34640;DHT22;22600;48.186;11.526;2022-10-16T16:20:00;20.60;77.20
34640;DHT22;22600;48.186;11.526;2022-10-16T16:22:26;20.60;77.20
34640;DHT22;22600;48.186;11.526;2022-10-16T16:24:52;20.60;77.20
34640;DHT22;22600;48.186;11.526;2022-10-16T16:27:17;20.60;77.20
34640;DHT22;22600;48.186;11.526;2022-10-16T16:29:45;20.60;77.20
34640;DHT22;22600;48.186;11.526;2022-10-16T16:32:10;20.50;77.20
34640;DHT22;22600;48.186;11.526;2022-10-16T16:34:36;20.60;77.20
34640;DHT22;22600;48.186;11.526;2022-10-16T16:37:01;20.60;77.30
34640;DHT22;22600;48.186;11.526;2022-10-16T16:39:27;20.50;77.20
34640;DHT22;22600;48.186;11.526;2022-10-16T16:41:56;20.50;77.20
34640;DHT22;22600;48.186;11.526;2022-10-16T16:44:21;20.50;77.20
34640;DHT22;22600;48.186;11.526;2022-10-16T16:46:47;20.60;77.20
34640;DHT22;22600;48.186;11.526;2022-10-16T16:49:13;20.50;77.20
34640;DHT22;22600;48.186;11.526;2022-10-16T16:51:40;20.50;77.20
34640;DHT22;22600;48.186;11.526;2022-10-16T16:54:07;20.50;77.20
34640;DHT22;22600;48.186;11.526;2022-10-16T16:56:33;20.50;77.20
34640;DHT22;22600;48.186;11.526;2022-10-16T16:58:59;20.50;77.20
34640;DHT22;22600;48.186;11.526;2022-10-16T17:01:26;20.60;77.20
34640;DHT22;22600;48.186;11.526;2022-10-16T17:03:54;20.50;77.20
34640;DHT22;22600;48.186;11.526;2022-10-16T17:06:22;20.50;77.20
34640;DHT22;22600;48.186;11.526;2022-10-16T17:08:49;20.50;77.20
34640;DHT22;22600;48.186;11.526;2022-10-16T17:11:23;20.50;77.20
34640;DHT22;22600;48.186;11.526;2022-10-16T17:13:51;20.50;77.20
34640;DHT22;22600;48.186;11.526;2022-10-16T17:16:19;20.50;77.20